Time;durP1;ratioP1;P1;durP2;ratioP2;P2;SDS_P1;SDS_P2;PMS_P1;PMS_P2;Temp;Humidity;BMP_temperature;BMP_pressure;BME280_temperature;BME280_humidity;BME280_pressure;Samples;Min_cycle;Max_cycle;Signal;HPM_P1;HPM_P2
2021/04/18 00:00:33;;;;;;;6.67;3.50;;;4.50;99.90;;;;;;4993852;28;20019;-90
2021/04/18 00:02:59;;;;;;;5.60;2.93;;;4.30;99.90;;;;;;5013334;28;20026;-90
2021/04/18 00:05:27;;;;;;;7.70;3.70;;;4.30;99.90;;;;;;5013092;28;20177;-89
2021/04/18 00:08:02;;;;;;;6.90;3.13;;;4.30;99.90;;;;;;4998352;28;20030;-89
2021/04/18 00:10:33;;;;;;;6.83;3.80;;;4.40;99.90;;;;;;5012270;28;20520;-89
2021/04/18 00:13:00;;;;;;;7.13;3.73;;;4.30;99.90;;;;;;5014655;28;20105;-90
2021/04/18 00:15:26;;;;;;;6.87;3.80;;;4.40;99.90;;;;;;5012761;28;20057;-89
2021/04/18 00:17:52;;;;;;;7.53;4.17;;;4.50;99.90;;;;;;5008688;28;20034;-90
2021/04/18 00:20:18;;;;;;;6.60;3.70;;;4.20;99.90;;;;;;5010422;28;20120;-89
2021/04/18 00:22:44;;;;;;;8.63;3.60;;;4.20;99.90;;;;;;5010827;28;20026;-87
2021/04/18 00:25:15;;;;;;;8.17;4.33;;;4.20;99.90;;;;;;4996947;28;20077;-89
2021/04/18 00:27:42;;;;;;;6.77;4.00;;;4.20;99.90;;;;;;4995501;28;20805;-89
2021/04/18 00:30:10;;;;;;;8.50;3.97;;;4.20;99.90;;;;;;4994286;28;20141;-90
2021/04/18 00:32:37;;;;;;;6.73;4.30;;;4.10;99.90;;;;;;5011381;28;20077;-90
2021/04/18 00:35:04;;;;;;;8.73;4.27;;;4.10;99.90;;;;;;5005640;28;20064;-90
2021/04/18 00:37:32;;;;;;;6.87;4.20;;;4.10;99.90;;;;;;5013112;28;20382;-90
2021/04/18 00:39:58;;;;;;;9.80;5.10;;;4.10;99.90;;;;;;5013504;28;20026;-90
2021/04/18 00:42:34;;;;;;;9.90;4.47;;;4.30;99.90;;;;;;5011162;28;20023;-89
2021/04/18 00:45:09;;;;;;;6.43;4.17;;;4.10;99.90;;;;;;5006548;28;20077;-90
2021/04/18 00:47:41;;;;;;;7.37;4.40;;;4.30;99.90;;;;;;5013076;28;20022;-89
2021/04/18 00:50:11;;;;;;;6.73;4.17;;;4.10;99.90;;;;;;5013647;28;20109;-89
2021/04/18 00:52:37;;;;;;;6.07;4.23;;;4.10;99.90;;;;;;4995246;28;20038;-89
2021/04/18 00:55:08;;;;;;;6.87;3.87;;;4.10;99.90;;;;;;4993070;28;20032;-90
2021/04/18 00:57:33;;;;;;;7.97;4.57;;;4.20;99.90;;;;;;4994865;28;20076;-90
2021/04/18 01:00:01;;;;;;;7.07;4.80;;;4.10;99.90;;;;;;4993723;28;20030;-89
2021/04/18 01:02:27;;;;;;;7.80;4.60;;;4.00;99.90;;;;;;5008756;28;20072;-89
2021/04/18 01:04:53;;;;;;;6.63;4.10;;;3.90;99.90;;;;;;4993735;28;20073;-90
2021/04/18 01:07:18;;;;;;;8.47;4.87;;;4.00;99.90;;;;;;4992890;28;20027;-89
2021/04/18 01:09:45;;;;;;;9.40;4.90;;;4.00;99.90;;;;;;4993053;28;20045;-90
2021/04/18 01:12:11;;;;;;;8.20;5.00;;;4.00;99.90;;;;;;5008711;28;20029;-90
2021/04/18 01:14:39;;;;;;;8.70;4.60;;;3.90;99.90;;;;;;5012180;28;20121;-89
2021/04/18 01:17:04;;;;;;;9.23;5.20;;;3.90;99.90;;;;;;5012828;28;20150;-89
2021/04/18 01:19:30;;;;;;;11.07;5.13;;;3.90;99.90;;;;;;5002012;28;20511;-90
2021/04/18 01:21:56;;;;;;;8.53;5.53;;;3.90;99.90;;;;;;5008743;28;20113;-90
2021/04/18 01:24:22;;;;;;;9.23;5.80;;;4.30;99.90;;;;;;4993067;28;20125;-88
2021/04/18 01:26:48;;;;;;;8.37;5.60;;;4.10;99.90;;;;;;5009244;28;20041;-90
2021/04/18 01:29:13;;;;;;;8.47;5.53;;;3.90;99.90;;;;;;5009798;28;20068;-89
2021/04/18 01:31:39;;;;;;;9.37;5.70;;;3.90;99.90;;;;;;5013155;28;20076;-90
2021/04/18 01:34:05;;;;;;;8.23;5.87;;;3.80;99.90;;;;;;5013578;28;20034;-89
2021/04/18 01:36:31;;;;;;;9.73;6.20;;;3.80;99.90;;;;;;5011407;28;20069;-90
2021/04/18 01:38:57;;;;;;;11.33;5.87;;;3.90;99.90;;;;;;5011941;28;20030;-89
2021/04/18 01:41:23;;;;;;;9.97;5.60;;;3.90;99.90;;;;;;5011302;28;20107;-89
2021/04/18 01:43:49;;;;;;;10.37;5.80;;;4.20;99.90;;;;;;5013210;28;20038;-90
2021/04/18 01:46:15;;;;;;;10.60;5.70;;;3.90;99.90;;;;;;5005451;28;20073;-90
2021/04/18 01:48:40;;;;;;;7.67;5.27;;;4.00;99.90;;;;;;4992764;28;20026;-90
2021/04/18 01:51:10;;;;;;;8.03;5.20;;;4.00;99.90;;;;;;4992604;28;20093;-90
2021/04/18 01:53:36;;;;;;;8.87;5.57;;;4.00;99.90;;;;;;4992710;28;20096;-90
2021/04/18 01:56:02;;;;;;;7.47;4.83;;;4.00;99.90;;;;;;5011570;28;20033;-90
2021/04/18 01:58:28;;;;;;;12.60;6.00;;;4.00;99.90;;;;;;5014203;28;20022;-91
2021/04/18 02:00:54;;;;;;;10.50;5.87;;;4.00;99.90;;;;;;5013338;28;20018;-90
2021/04/18 02:03:20;;;;;;;9.60;5.60;;;4.00;99.90;;;;;;5013596;28;20025;-90
2021/04/18 02:05:46;;;;;;;8.63;5.37;;;4.00;99.90;;;;;;5029753;28;20053;-90
2021/04/18 02:08:12;;;;;;;7.60;5.40;;;4.30;99.90;;;;;;5013608;28;20018;-90
2021/04/18 02:10:38;;;;;;;9.83;6.10;;;4.10;99.90;;;;;;5012151;28;20074;-90
2021/04/18 02:13:03;;;;;;;9.87;5.70;;;4.10;99.90;;;;;;5007209;28;20108;-89
2021/04/18 02:15:30;;;;;;;9.33;5.97;;;4.10;99.90;;;;;;4996218;28;20482;-89
2021/04/18 02:17:56;;;;;;;8.67;5.93;;;4.00;99.90;;;;;;5010948;28;20035;-90
2021/04/18 02:20:21;;;;;;;10.10;6.77;;;4.00;99.90;;;;;;5010183;28;20423;-89
2021/04/18 02:22:47;;;;;;;10.10;6.37;;;4.00;99.90;;;;;;4995410;28;20037;-90
2021/04/18 02:25:14;;;;;;;10.17;6.47;;;3.90;99.90;;;;;;4994348;28;20040;-90
2021/04/18 02:27:40;;;;;;;10.83;6.33;;;3.90;99.90;;;;;;4994117;28;20125;-89
2021/04/18 02:30:07;;;;;;;8.83;6.17;;;3.80;99.90;;;;;;4994032;28;20065;-89
2021/04/18 02:32:33;;;;;;;9.50;6.27;;;3.80;99.90;;;;;;4997146;28;20042;-89
2021/04/18 02:34:59;;;;;;;10.83;6.53;;;3.90;99.90;;;;;;4995390;28;20034;-90
2021/04/18 02:37:25;;;;;;;11.40;6.50;;;3.90;99.90;;;;;;5004313;28;20018;-90
2021/04/18 02:39:51;;;;;;;9.13;6.30;;;3.90;99.90;;;;;;5014609;28;20033;-90
2021/04/18 02:42:17;;;;;;;10.33;7.17;;;3.90;99.90;;;;;;5013973;28;20033;-89
2021/04/18 02:44:42;;;;;;;11.10;7.30;;;3.90;99.90;;;;;;5015255;28;20030;-90
2021/04/18 02:47:08;;;;;;;10.30;7.13;;;3.90;99.90;;;;;;5010748;28;20085;-90
2021/04/18 02:49:34;;;;;;;11.10;7.60;;;3.80;99.90;;;;;;4995116;28;20680;-88
2021/04/18 02:51:59;;;;;;;10.03;6.90;;;3.80;99.90;;;;;;4995128;28;20057;-89
2021/04/18 02:54:25;;;;;;;10.90;7.60;;;3.80;99.90;;;;;;4998855;28;20029;-90
2021/04/18 02:56:51;;;;;;;11.53;7.03;;;3.80;99.90;;;;;;5014680;28;20182;-90
2021/04/18 02:59:17;;;;;;;14.10;7.27;;;3.80;99.90;;;;;;5015513;28;20026;-89
2021/04/18 03:01:42;;;;;;;11.90;6.93;;;3.80;99.90;;;;;;5013902;28;20030;-90
2021/04/18 03:04:08;;;;;;;9.83;6.60;;;3.80;99.90;;;;;;5014946;28;20080;-90
2021/04/18 03:06:34;;;;;;;10.60;6.93;;;3.90;99.90;;;;;;5016385;28;20034;-90
2021/04/18 03:09:00;;;;;;;11.53;6.87;;;3.80;99.90;;;;;;5014821;28;20223;-89
2021/04/18 03:11:26;;;;;;;12.73;7.33;;;4.10;99.90;;;;;;5015504;28;20458;-91
2021/04/18 03:13:52;;;;;;;12.07;7.00;;;3.80;99.90;;;;;;5016160;28;20038;-90
2021/04/18 03:16:18;;;;;;;10.23;6.97;;;3.80;99.90;;;;;;5016465;28;20033;-90
2021/04/18 03:18:43;;;;;;;8.87;6.60;;;3.90;99.90;;;;;;5015501;28;20053;-89
2021/04/18 03:21:11;;;;;;;11.33;6.90;;;3.90;99.90;;;;;;5014076;28;20470;-89
2021/04/18 03:23:37;;;;;;;8.47;6.37;;;3.90;99.90;;;;;;5015905;28;20034;-89
2021/04/18 03:26:04;;;;;;;11.70;7.67;;;4.20;99.90;;;;;;5014788;28;20073;-89
2021/04/18 03:28:29;;;;;;;13.40;7.57;;;4.00;99.90;;;;;;5012701;28;20022;-90
2021/04/18 03:30:55;;;;;;;10.23;7.33;;;4.00;99.90;;;;;;5010291;28;20080;-88
2021/04/18 03:33:22;;;;;;;10.40;6.83;;;4.00;99.90;;;;;;5012534;28;20046;-89
2021/04/18 03:35:47;;;;;;;9.67;6.20;;;4.00;99.90;;;;;;5012723;28;20034;-88
2021/04/18 03:38:16;;;;;;;10.47;6.47;;;4.00;99.90;;;;;;5029535;28;20033;-89
2021/04/18 03:40:42;;;;;;;11.73;6.10;;;4.00;99.90;;;;;;5031945;28;20146;-88
2021/04/18 03:43:08;;;;;;;9.20;6.47;;;4.30;99.90;;;;;;5032173;28;20028;-87
2021/04/18 03:45:34;;;;;;;12.77;7.70;;;4.10;99.90;;;;;;5032571;28;20022;-88
2021/04/18 03:48:00;;;;;;;10.47;7.60;;;4.00;99.90;;;;;;5016147;28;20020;-88
2021/04/18 03:50:25;;;;;;;10.47;7.03;;;4.00;99.90;;;;;;5013818;28;20018;-88
2021/04/18 03:52:55;;;;;;;11.60;6.67;;;4.20;99.90;;;;;;5012780;28;20046;-88
2021/04/18 03:55:21;;;;;;;10.20;6.60;;;4.00;99.90;;;;;;5022602;28;20064;-89
2021/04/18 03:57:47;;;;;;;11.13;7.13;;;4.00;99.90;;;;;;5032746;28;20070;-89
2021/04/18 04:00:13;;;;;;;10.17;6.57;;;4.10;99.90;;;;;;5031772;28;20030;-89
2021/04/18 04:02:39;;;;;;;11.00;7.17;;;4.00;99.90;;;;;;5030663;28;20033;-89
2021/04/18 04:05:05;;;;;;;10.97;7.43;;;4.00;99.90;;;;;;5033167;28;20034;-89
2021/04/18 04:07:31;;;;;;;13.50;7.97;;;4.00;99.90;;;;;;5031606;28;20010;-89
2021/04/18 04:09:56;;;;;;;12.47;6.80;;;4.00;99.90;;;;;;5017219;28;20062;-88
2021/04/18 04:12:24;;;;;;;9.10;6.50;;;4.10;99.90;;;;;;5009058;28;20029;-89
2021/04/18 04:14:51;;;;;;;11.73;7.17;;;4.00;99.90;;;;;;5017942;28;20041;-89
2021/04/18 04:17:17;;;;;;;9.97;7.23;;;4.00;99.90;;;;;;5009838;28;20026;-89
2021/04/18 04:19:43;;;;;;;10.97;7.13;;;4.10;99.90;;;;;;5009019;28;20054;-89
2021/04/18 04:22:08;;;;;;;12.40;7.50;;;4.00;99.90;;;;;;5004589;28;20034;-89
2021/04/18 04:24:34;;;;;;;11.27;7.47;;;4.00;99.90;;;;;;4989638;28;20037;-90
2021/04/18 04:26:59;;;;;;;11.47;7.70;;;3.90;99.90;;;;;;4989365;28;20041;-89
2021/04/18 04:29:25;;;;;;;10.03;7.47;;;3.90;99.90;;;;;;4989390;28;20033;-89
2021/04/18 04:31:51;;;;;;;12.50;8.10;;;3.90;99.90;;;;;;5004957;28;20042;-89
2021/04/18 04:34:17;;;;;;;14.43;8.87;;;3.90;99.90;;;;;;4990274;28;20718;-88
2021/04/18 04:36:42;;;;;;;14.13;8.50;;;4.00;99.90;;;;;;5005891;28;20033;-90
2021/04/18 04:39:08;;;;;;;11.33;8.20;;;3.90;99.90;;;;;;5021651;28;20049;-89
2021/04/18 04:41:34;;;;;;;12.30;8.53;;;3.80;99.90;;;;;;4989049;28;20117;-89
2021/04/18 04:44:00;;;;;;;12.73;8.87;;;3.90;99.90;;;;;;4989338;28;20112;-89
2021/04/18 04:46:26;;;;;;;13.93;8.50;;;3.90;99.90;;;;;;5005758;28;20124;-89
2021/04/18 04:48:51;;;;;;;12.63;8.03;;;3.90;99.90;;;;;;4988968;28;20031;-89
2021/04/18 04:51:17;;;;;;;12.13;7.83;;;3.90;99.90;;;;;;4988396;28;20038;-88
2021/04/18 04:53:42;;;;;;;13.67;8.30;;;4.00;99.90;;;;;;4989035;28;20038;-89
2021/04/18 04:56:08;;;;;;;13.27;8.57;;;4.00;99.90;;;;;;4989738;28;20117;-89
2021/04/18 04:58:34;;;;;;;13.33;8.03;;;3.90;99.90;;;;;;4988554;28;20030;-89
2021/04/18 05:01:00;;;;;;;12.97;8.67;;;3.90;99.90;;;;;;4988585;28;20057;-89
2021/04/18 05:03:27;;;;;;;12.60;8.57;;;4.00;99.90;;;;;;4989338;28;20144;-89
2021/04/18 05:05:54;;;;;;;13.57;8.97;;;3.90;99.90;;;;;;4988297;28;20038;-89
2021/04/18 05:08:20;;;;;;;13.90;8.73;;;3.90;99.90;;;;;;4988932;28;20065;-89
2021/04/18 05:10:46;;;;;;;12.13;8.10;;;3.90;99.90;;;;;;4999472;28;20141;-88
2021/04/18 05:13:13;;;;;;;11.10;7.63;;;4.00;99.90;;;;;;5006902;28;20116;-89
2021/04/18 05:15:39;;;;;;;11.43;7.77;;;4.00;99.90;;;;;;4990078;28;20031;-89
2021/04/18 05:18:07;;;;;;;13.57;8.40;;;4.00;99.90;;;;;;4988923;28;20054;-89
2021/04/18 05:20:33;;;;;;;14.53;8.83;;;4.00;99.90;;;;;;4988126;28;20030;-90
2021/04/18 05:22:59;;;;;;;11.97;7.57;;;4.00;99.90;;;;;;4987912;28;20045;-90
2021/04/18 05:25:25;;;;;;;12.47;7.93;;;4.00;99.90;;;;;;4988848;28;20031;-89
2021/04/18 05:27:50;;;;;;;11.87;8.40;;;4.00;99.90;;;;;;4989015;28;20120;-89
2021/04/18 05:30:17;;;;;;;11.10;7.80;;;4.10;99.90;;;;;;4991907;28;20034;-89
2021/04/18 05:32:43;;;;;;;11.53;7.40;;;4.10;99.90;;;;;;5019393;28;20041;-89
2021/04/18 05:35:10;;;;;;;12.87;7.20;;;4.10;99.90;;;;;;5012485;28;20029;-88
2021/04/18 05:37:36;;;;;;;9.60;6.67;;;4.10;99.90;;;;;;5012031;28;20033;-89
2021/04/18 05:40:03;;;;;;;10.20;6.87;;;4.20;99.90;;;;;;5011462;28;20037;-89
2021/04/18 05:42:29;;;;;;;9.27;6.13;;;4.20;99.90;;;;;;4999427;28;20034;-88
2021/04/18 05:44:57;;;;;;;10.40;6.67;;;4.20;99.90;;;;;;4993496;28;20040;-89
2021/04/18 05:47:23;;;;;;;10.73;6.33;;;4.20;99.90;;;;;;4991910;28;20511;-87
2021/04/18 05:49:48;;;;;;;10.53;6.97;;;4.30;99.90;;;;;;4991499;28;20054;-88
2021/04/18 05:52:15;;;;;;;10.57;6.43;;;4.30;99.90;;;;;;5003349;28;20030;-89
2021/04/18 05:54:40;;;;;;;11.20;6.90;;;4.30;99.90;;;;;;4992042;28;20041;-89
2021/04/18 05:57:06;;;;;;;9.50;6.20;;;4.30;99.90;;;;;;4991845;28;20022;-88
2021/04/18 05:59:35;;;;;;;8.63;6.13;;;4.30;99.90;;;;;;4995898;28;20022;-89
2021/04/18 06:02:01;;;;;;;9.47;6.47;;;4.30;99.90;;;;;;5010752;28;20022;-89
2021/04/18 06:04:26;;;;;;;12.40;6.87;;;4.30;99.90;;;;;;5012562;28;20465;-93
2021/04/18 06:06:52;;;;;;;11.90;7.03;;;4.20;99.90;;;;;;5024577;28;20041;-91
2021/04/18 06:09:18;;;;;;;10.23;6.37;;;4.30;99.90;;;;;;5012290;28;20038;-91
2021/04/18 06:11:43;;;;;;;10.60;6.83;;;4.30;99.90;;;;;;5013974;28;20026;-91
2021/04/18 06:14:09;;;;;;;10.83;7.47;;;4.40;99.90;;;;;;5014983;28;20045;-93
2021/04/18 06:16:36;;;;;;;11.67;8.00;;;4.40;99.90;;;;;;5010891;28;20080;-92
2021/04/18 06:27:07;;;;;;;;;;;;;;;;;;;;;
2021/04/18 07:03:21;;;;;;;18.03;8.03;;;4.90;99.90;;;;;;5052302;28;20045;-92
2021/04/18 07:05:48;;;;;;;13.03;9.03;;;5.00;99.90;;;;;;5030747;28;20045;-92
2021/04/18 07:08:23;;;;;;;13.47;8.87;;;4.90;99.90;;;;;;5028102;28;20432;-94
2021/04/18 07:13:44;;;;;;;12.37;8.27;;;5.20;99.90;;;;;;5145063;23;20052;-92
2021/04/18 07:16:32;;;;;;;13.10;8.27;;;5.50;99.90;;;;;;5047750;28;20073;-93
2021/04/18 07:19:07;;;;;;;14.30;9.07;;;5.40;99.90;;;;;;5044857;28;20014;-93
2021/04/18 07:21:57;;;;;;;14.13;8.03;;;5.40;99.90;;;;;;5060125;28;20325;-93
2021/04/18 07:24:30;;;;;;;13.67;8.47;;;5.40;99.90;;;;;;5054309;28;20013;-91
2021/04/18 07:27:10;;;;;;;15.60;8.33;;;5.40;99.90;;;;;;5053480;28;20346;-91
2021/04/18 07:29:36;;;;;;;12.87;7.63;;;5.30;99.90;;;;;;5058427;28;20044;-93
2021/04/18 07:32:20;;;;;;;15.63;7.93;;;5.30;99.90;;;;;;5047140;28;20013;-93
2021/04/18 07:34:50;;;;;;;16.13;8.20;;;5.60;99.90;;;;;;5046342;28;20054;-93
2021/04/18 07:37:19;;;;;;;15.33;7.40;;;5.40;99.90;;;;;;5043071;28;20033;-93
2021/04/18 08:34:26;;;;;;;11.53;5.30;;;6.70;99.90;;;;;;4356454;22;20516;-93
2021/04/18 09:00:20;;;;;;;9.57;4.80;;;7.00;99.90;;;;;;5691960;23;20053;-94
2021/04/18 09:28:51;;;;;;;;;;;;;;;;;;;;;
2021/04/18 10:33:39;;;;;;;12.70;5.82;;;8.60;99.90;;;;;;5742322;22;20074;-95
2021/04/18 10:36:35;;;;;;;11.02;5.50;;;8.70;99.90;;;;;;5020631;28;20026;-96
2021/04/18 12:23:17;;;;;;;9.07;5.60;;;10.00;99.90;;;;;;5633200;22;20055;-93
2021/04/18 12:25:43;;;;;;;12.23;5.70;;;10.10;99.90;;;;;;5034933;28;20040;-92
2021/04/18 12:28:15;;;;;;;8.10;5.20;;;10.10;99.90;;;;;;5038198;28;20041;-93
2021/04/18 12:30:41;;;;;;;9.82;5.85;;;10.20;99.80;;;;;;5034476;28;20104;-92
2021/04/18 12:33:10;;;;;;;9.25;5.13;;;10.40;99.90;;;;;;5034654;28;20030;-95
2021/04/18 13:37:45;;;;;;;10.50;5.72;;;10.10;99.70;;;;;;3215681;26;20034;-92
2021/04/18 13:40:12;;;;;;;9.63;5.70;;;10.10;99.80;;;;;;5017458;28;20017;-93
2021/04/18 13:42:40;;;;;;;9.30;5.47;;;10.10;99.70;;;;;;5035977;28;20002;-95
2021/04/18 13:45:08;;;;;;;10.52;5.53;;;10.20;99.80;;;;;;5022845;28;20026;-92
2021/04/18 13:47:34;;;;;;;8.85;5.25;;;10.00;99.90;;;;;;5021840;28;20005;-95
2021/04/18 13:50:00;;;;;;;8.27;5.35;;;10.00;99.70;;;;;;5025134;28;20048;-93
2021/04/18 13:52:26;;;;;;;8.95;5.15;;;10.20;99.90;;;;;;5041088;28;20009;-94
2021/04/18 13:54:52;;;;;;;8.52;4.70;;;10.00;99.40;;;;;;5031867;28;20081;-94
2021/04/18 13:57:17;;;;;;;8.73;5.10;;;10.10;99.70;;;;;;5025264;28;20022;-93
2021/04/18 13:59:45;;;;;;;7.22;4.78;;;10.30;99.90;;;;;;5020944;28;20025;-92
2021/04/18 14:02:11;;;;;;;9.98;5.68;;;9.90;99.50;;;;;;5020810;28;20056;-92
2021/04/18 14:04:37;;;;;;;9.65;5.43;;;10.00;99.90;;;;;;5021106;28;20037;-92
2021/04/18 14:07:03;;;;;;;10.30;5.60;;;10.10;99.90;;;;;;5021222;28;20030;-92
2021/04/18 14:09:29;;;;;;;10.50;5.13;;;9.80;99.90;;;;;;5021024;28;20014;-93
2021/04/18 14:11:54;;;;;;;10.05;5.60;;;9.90;99.90;;;;;;5020522;28;20041;-93
2021/04/18 14:14:20;;;;;;;9.90;4.93;;;9.80;99.90;;;;;;5019909;28;20030;-94
2021/04/18 14:16:46;;;;;;;8.25;4.68;;;9.80;99.90;;;;;;5033901;28;20032;-94
2021/04/18 14:19:11;;;;;;;8.90;5.20;;;9.90;99.90;;;;;;5037239;28;20024;-92
2021/04/18 14:21:37;;;;;;;8.85;5.07;;;10.20;99.70;;;;;;5036822;28;20018;-94
2021/04/18 14:24:11;;;;;;;9.80;5.57;;;10.30;99.90;;;;;;5037089;28;20029;-93
2021/04/18 14:26:39;;;;;;;9.68;5.22;;;9.90;99.80;;;;;;5040688;28;20097;-95
2021/04/18 14:29:05;;;;;;;8.30;5.18;;;9.80;99.90;;;;;;5035885;28;20018;-95
2021/04/18 14:31:31;;;;;;;10.25;5.38;;;10.10;99.90;;;;;;5029843;28;20013;-95
2021/04/18 14:34:00;;;;;;;11.57;5.53;;;10.00;99.90;;;;;;5030201;28;20080;-96
2021/04/18 14:36:40;;;;;;;10.25;5.57;;;9.90;99.90;;;;;;5049803;28;20029;-94
2021/04/18 14:39:06;;;;;;;9.95;4.93;;;9.90;99.90;;;;;;5038266;28;20053;-94
2021/04/18 14:41:33;;;;;;;8.57;5.10;;;10.10;99.90;;;;;;5031892;28;20021;-93
2021/04/18 14:44:11;;;;;;;10.63;5.63;;;10.10;99.90;;;;;;5034608;28;20045;-93
2021/04/18 14:46:37;;;;;;;12.73;6.25;;;10.20;99.90;;;;;;5030926;28;20060;-94
2021/04/18 14:49:03;;;;;;;11.93;5.70;;;10.20;99.60;;;;;;5024006;28;20013;-94
2021/04/18 14:51:34;;;;;;;10.43;5.50;;;10.40;99.40;;;;;;5039049;28;20017;-93
2021/04/18 14:54:00;;;;;;;7.60;4.07;;;10.30;99.30;;;;;;5031548;28;20544;-92
2021/04/18 14:56:26;;;;;;;10.02;5.03;;;10.60;99.60;;;;;;5026186;28;20301;-94
2021/04/18 14:58:51;;;;;;;9.23;5.28;;;10.50;99.50;;;;;;5043180;28;20044;-92
2021/04/18 15:01:17;;;;;;;11.02;5.13;;;10.40;99.20;;;;;;5035497;28;20005;-93
2021/04/18 15:03:43;;;;;;;9.10;5.07;;;10.60;99.30;;;;;;5036546;28;20026;-92
2021/04/18 15:06:11;;;;;;;9.57;5.30;;;10.60;99.10;;;;;;5034286;28;20032;-93
2021/04/18 15:08:36;;;;;;;10.18;5.13;;;10.70;99.30;;;;;;5025431;28;20030;-92
2021/04/18 15:11:02;;;;;;;10.27;5.05;;;10.70;98.60;;;;;;5019699;28;20073;-94
2021/04/18 15:13:30;;;;;;;9.52;5.05;;;11.00;98.10;;;;;;5020308;28;20018;-93
2021/04/18 15:16:14;;;;;;;9.85;5.13;;;10.80;98.80;;;;;;5034590;28;20029;-93
2021/04/18 15:18:40;;;;;;;10.65;5.43;;;10.80;97.90;;;;;;5035430;28;20037;-93
2021/04/18 15:21:06;;;;;;;10.38;5.55;;;10.80;97.40;;;;;;5028377;28;20028;-94
2021/04/18 15:23:33;;;;;;;10.13;5.38;;;10.80;97.80;;;;;;5038567;28;20018;-92
2021/04/18 15:25:58;;;;;;;13.32;5.40;;;10.80;97.90;;;;;;5033296;28;20018;-93
2021/04/18 15:28:24;;;;;;;9.57;5.82;;;10.90;98.10;;;;;;5029505;28;20022;-94
2021/04/18 15:30:52;;;;;;;9.48;5.75;;;10.80;97.80;;;;;;5032151;28;20033;-92
2021/04/18 15:34:00;;;;;;;9.15;5.00;;;10.80;98.40;;;;;;5031091;28;20021;-93
2021/04/18 15:36:48;;;;;;;9.75;5.80;;;10.40;98.90;;;;;;5037635;28;20018;-92
2021/04/18 15:39:15;;;;;;;10.13;5.30;;;10.60;98.70;;;;;;5017500;28;20028;-96
2021/04/18 15:41:44;;;;;;;9.10;5.65;;;10.40;98.50;;;;;;5026326;28;20022;-92
2021/04/18 15:44:13;;;;;;;10.13;5.80;;;10.30;99.00;;;;;;5033814;28;20020;-93
2021/04/18 15:46:43;;;;;;;10.40;6.53;;;10.10;99.40;;;;;;5036084;28;20033;-94
2021/04/18 15:49:09;;;;;;;10.02;5.45;;;10.10;99.90;;;;;;5033259;28;20018;-96
2021/04/18 15:51:40;;;;;;;11.05;5.53;;;10.10;99.90;;;;;;5029358;28;20021;-96
2021/04/18 15:54:07;;;;;;;10.23;5.93;;;9.90;99.90;;;;;;5037736;28;20036;-95
2021/04/18 15:56:36;;;;;;;11.07;5.72;;;10.20;99.90;;;;;;5028094;28;20037;-95
2021/04/18 16:30:09;;;;;;;10.05;5.97;;;9.50;99.90;;;;;;4988788;28;20054;-88
2021/04/18 16:32:36;;;;;;;11.50;6.22;;;9.50;99.90;;;;;;4975796;28;20030;-87
2021/04/18 16:35:04;;;;;;;11.30;6.43;;;9.50;99.90;;;;;;4991136;28;20042;-87
2021/04/18 16:37:29;;;;;;;10.15;6.22;;;9.50;99.90;;;;;;4967032;28;20057;-87
2021/04/18 16:39:55;;;;;;;11.30;6.30;;;9.50;99.90;;;;;;4974130;28;20026;-87
2021/04/18 16:42:21;;;;;;;13.25;6.22;;;9.40;99.90;;;;;;4990949;28;20037;-87
2021/04/18 16:44:46;;;;;;;16.95;6.28;;;9.50;99.90;;;;;;4996417;28;20117;-88
2021/04/18 16:47:12;;;;;;;11.80;6.55;;;9.40;99.90;;;;;;5005059;28;20034;-88
2021/04/18 16:49:38;;;;;;;10.73;6.80;;;9.30;99.90;;;;;;4985952;28;20038;-87
2021/04/18 16:52:03;;;;;;;12.57;6.45;;;9.40;99.90;;;;;;4976164;28;20042;-88
2021/04/18 16:54:29;;;;;;;15.43;8.00;;;9.30;99.90;;;;;;4993273;28;20030;-88
2021/04/18 16:56:55;;;;;;;12.57;7.35;;;9.30;99.90;;;;;;4993474;28;20031;-88
2021/04/18 16:59:21;;;;;;;12.35;7.05;;;9.30;99.90;;;;;;4969006;28;20022;-88
2021/04/18 17:01:47;;;;;;;14.60;7.70;;;9.30;99.90;;;;;;4972888;28;20027;-89
2021/04/18 17:04:13;;;;;;;12.93;7.40;;;9.30;99.90;;;;;;4974196;28;20439;-88
2021/04/18 17:06:38;;;;;;;12.90;7.15;;;9.30;99.90;;;;;;4989480;28;20169;-88
2021/04/18 17:09:05;;;;;;;11.40;6.82;;;9.30;99.90;;;;;;4980965;28;20081;-88
2021/04/18 17:11:32;;;;;;;11.98;7.10;;;9.30;99.90;;;;;;4991381;28;20038;-89
2021/04/18 17:13:58;;;;;;;12.48;6.97;;;9.50;99.90;;;;;;4974478;28;20102;-88
2021/04/18 17:16:24;;;;;;;12.65;7.15;;;9.30;99.90;;;;;;4984054;28;20063;-88
2021/04/18 17:18:51;;;;;;;10.45;6.15;;;9.30;99.90;;;;;;4985401;28;20110;-88
2021/04/18 17:21:16;;;;;;;13.60;6.78;;;9.30;99.90;;;;;;4965060;28;20031;-88
2021/04/18 17:23:42;;;;;;;15.82;6.53;;;9.30;99.90;;;;;;4988773;28;20534;-89
2021/04/18 17:26:08;;;;;;;15.38;6.43;;;9.30;99.90;;;;;;4978949;28;20037;-87
2021/04/18 17:28:33;;;;;;;13.40;6.68;;;9.30;99.90;;;;;;5002209;28;20030;-89
2021/04/18 17:30:59;;;;;;;10.63;6.53;;;9.30;99.90;;;;;;4979735;28;20049;-88
2021/04/18 17:33:25;;;;;;;12.23;6.72;;;9.30;99.90;;;;;;4985623;28;20041;-89
2021/04/18 17:35:51;;;;;;;13.43;6.57;;;9.30;99.90;;;;;;4980041;28;20030;-89
2021/04/18 17:38:17;;;;;;;11.82;6.13;;;9.30;99.90;;;;;;4982759;28;20062;-89
2021/04/18 17:40:43;;;;;;;12.50;6.65;;;9.40;99.90;;;;;;4992819;28;20049;-88
2021/04/18 17:43:09;;;;;;;12.18;6.65;;;9.10;99.90;;;;;;4986151;28;20214;-89
2021/04/18 17:45:35;;;;;;;14.15;6.75;;;9.10;99.90;;;;;;4988331;28;20093;-88
2021/04/18 17:48:04;;;;;;;12.13;6.85;;;9.10;99.90;;;;;;4997010;28;20097;-89
2021/04/18 17:50:31;;;;;;;11.82;6.10;;;9.10;99.90;;;;;;4977443;28;20081;-89
2021/04/18 17:52:56;;;;;;;12.27;7.15;;;9.10;99.90;;;;;;4979999;28;20027;-88
2021/04/18 17:55:24;;;;;;;11.65;6.85;;;9.10;99.90;;;;;;4957153;28;20555;-88
2021/04/18 17:57:49;;;;;;;14.52;7.47;;;9.10;99.90;;;;;;4980706;28;20113;-89
2021/04/18 18:00:16;;;;;;;12.15;6.55;;;9.10;99.90;;;;;;4978333;28;20523;-89
2021/04/18 18:02:42;;;;;;;12.15;6.70;;;9.10;99.90;;;;;;4973410;28;20025;-88
2021/04/18 18:05:09;;;;;;;11.90;6.97;;;9.10;99.90;;;;;;4967358;28;20038;-87
2021/04/18 18:07:36;;;;;;;11.65;6.70;;;9.00;99.90;;;;;;4978412;28;20034;-87
2021/04/18 18:10:02;;;;;;;14.02;6.45;;;9.00;99.90;;;;;;4978132;28;20022;-88
2021/04/18 18:12:28;;;;;;;12.63;6.70;;;9.00;99.90;;;;;;4976423;28;20089;-89
2021/04/18 18:14:53;;;;;;;11.55;6.65;;;9.00;99.90;;;;;;4981254;28;20023;-88
2021/04/18 18:17:19;;;;;;;12.07;6.28;;;9.10;99.90;;;;;;4977170;28;20019;-88
2021/04/18 18:19:46;;;;;;;10.93;6.18;;;9.20;99.90;;;;;;4981308;28;20034;-88
2021/04/18 18:22:12;;;;;;;13.23;7.15;;;8.90;99.90;;;;;;4998432;28;20025;-87
2021/04/18 18:24:39;;;;;;;11.98;7.03;;;9.00;99.90;;;;;;4996884;28;20122;-87
2021/04/18 18:27:06;;;;;;;12.50;6.18;;;8.90;99.90;;;;;;4978661;28;20026;-88
2021/04/18 18:29:32;;;;;;;12.65;6.75;;;8.80;99.90;;;;;;4982092;28;20058;-87
2021/04/18 18:31:58;;;;;;;12.32;6.97;;;8.80;99.90;;;;;;4982717;28;20038;-88
2021/04/18 18:34:49;;;;;;;12.88;6.95;;;8.80;99.90;;;;;;4982234;28;20483;-88
2021/04/18 18:37:15;;;;;;;13.35;7.85;;;8.80;99.90;;;;;;4983799;28;20022;-88
2021/04/18 18:39:40;;;;;;;14.63;7.93;;;8.80;99.90;;;;;;4997600;28;20014;-88
2021/04/18 18:42:06;;;;;;;13.45;8.20;;;8.80;99.90;;;;;;5012461;28;20050;-88
2021/04/18 18:44:32;;;;;;;13.48;7.82;;;8.80;99.90;;;;;;4978493;28;20019;-88
2021/04/18 18:46:58;;;;;;;15.57;7.13;;;8.80;99.90;;;;;;4984935;28;20491;-88
2021/04/18 18:49:23;;;;;;;11.32;6.97;;;8.70;99.90;;;;;;4982404;28;20472;-89
2021/04/18 18:51:50;;;;;;;12.88;6.78;;;8.70;99.90;;;;;;4998880;28;20114;-90
2021/04/18 18:54:22;;;;;;;12.80;7.25;;;8.70;99.90;;;;;;4982341;28;20034;-88
2021/04/18 18:56:48;;;;;;;12.68;7.38;;;8.70;99.90;;;;;;4979219;28;20034;-88
2021/04/18 18:59:14;;;;;;;10.90;6.50;;;8.70;99.90;;;;;;5007672;28;20080;-88
2021/04/18 19:01:40;;;;;;;13.23;6.50;;;8.60;99.90;;;;;;5006473;28;20033;-88
2021/04/18 19:04:07;;;;;;;11.07;7.20;;;8.60;99.90;;;;;;4996639;28;20102;-88
2021/04/18 19:06:34;;;;;;;10.07;6.32;;;8.60;99.90;;;;;;4979597;28;20030;-89
2021/04/18 19:09:01;;;;;;;14.55;7.20;;;8.60;99.90;;;;;;4981269;28;20038;-88
2021/04/18 19:11:28;;;;;;;13.00;6.80;;;8.60;99.90;;;;;;4979134;28;20026;-88
2021/04/18 19:13:54;;;;;;;12.13;6.15;;;8.60;99.90;;;;;;4981039;28;20503;-88
2021/04/18 19:16:19;;;;;;;13.55;6.63;;;8.60;99.90;;;;;;4980991;28;20037;-89
2021/04/18 19:18:47;;;;;;;14.07;7.20;;;8.50;99.90;;;;;;4973908;28;20050;-89
2021/04/18 19:21:15;;;;;;;11.93;6.65;;;8.50;99.90;;;;;;4978742;28;20039;-88
2021/04/18 19:23:41;;;;;;;13.82;7.25;;;8.50;99.90;;;;;;4978447;28;20049;-88
2021/04/18 19:26:06;;;;;;;14.30;7.72;;;8.50;99.90;;;;;;4987769;28;20343;-89
2021/04/18 19:28:32;;;;;;;13.60;7.43;;;8.40;99.90;;;;;;4978272;28;20510;-88
2021/04/18 19:30:58;;;;;;;14.52;7.40;;;8.30;99.90;;;;;;4978839;28;20591;-88
2021/04/18 19:33:24;;;;;;;11.68;6.88;;;8.30;99.90;;;;;;4981026;28;20092;-88
2021/04/18 19:35:50;;;;;;;13.32;6.93;;;8.30;99.90;;;;;;4978657;28;20423;-88
2021/04/18 19:38:16;;;;;;;13.60;6.80;;;8.20;99.90;;;;;;4979946;28;20379;-88